createdAt,value
2022-08-26T00:00:56.839Z,59.37
2022-08-26T00:02:59.007Z,59.67
2022-08-26T00:05:00.512Z,59.49
2022-08-26T00:07:02.109Z,59.50
2022-08-26T00:09:04.834Z,59.75
2022-08-26T00:11:10.091Z,59.57
2022-08-26T00:13:12.853Z,59.48
2022-08-26T00:15:16.450Z,59.99
2022-08-26T00:17:18.742Z,59.53
2022-08-26T00:19:21.173Z,59.71
2022-08-26T00:21:22.918Z,59.92
2022-08-26T00:23:25.617Z,60.07
2022-08-26T00:25:30.769Z,59.79
2022-08-26T00:27:37.042Z,59.85
2022-08-26T00:29:40.065Z,59.78
2022-08-26T00:31:42.100Z,59.48
2022-08-26T00:33:43.852Z,60.14
2022-08-26T00:35:47.428Z,59.76
2022-08-26T00:37:49.224Z,59.89
2022-08-26T00:39:50.772Z,60.06
2022-08-26T00:41:54.575Z,60.27
2022-08-26T00:43:56.209Z,59.84
2022-08-26T00:46:10.396Z,60.04
2022-08-26T00:48:14.687Z,60.53
2022-08-26T00:50:20.910Z,60.06
2022-08-26T00:52:24.281Z,59.88
2022-08-26T00:54:30.546Z,60.51
2022-08-26T00:56:38.183Z,60.32
2022-08-26T00:58:43.021Z,60.22
2022-08-26T01:00:45.358Z,60.25
2022-08-26T01:02:48.688Z,60.13
2022-08-26T01:04:57.936Z,60.52
2022-08-26T01:07:00.360Z,60.25
2022-08-26T01:09:02.546Z,59.97
2022-08-26T01:11:05.415Z,60.24
2022-08-26T01:13:11.320Z,59.95
2022-08-26T01:15:17.507Z,60.00
2022-08-26T01:17:19.349Z,60.04
2022-08-26T01:19:32.508Z,60.55
2022-08-26T01:21:41.329Z,60.18
2022-08-26T01:23:47.474Z,60.06
2022-08-26T01:25:55.968Z,59.80
2022-08-26T01:27:59.948Z,60.26
2022-08-26T01:30:02.518Z,60.38
2022-08-26T01:32:05.534Z,60.77
2022-08-26T01:34:17.644Z,60.46
2022-08-26T01:36:21.326Z,60.62
2022-08-26T01:38:23.796Z,60.29
2022-08-26T01:40:32.757Z,60.49
2022-08-26T01:42:34.393Z,60.52
2022-08-26T01:44:43.878Z,62.24
2022-08-26T01:46:48.862Z,61.72
2022-08-26T01:48:55.059Z,61.71
2022-08-26T01:50:57.391Z,61.43
2022-08-26T01:53:02.478Z,64.13
2022-08-26T01:55:04.910Z,61.55
2022-08-26T01:57:07.709Z,60.82
2022-08-26T01:59:13.218Z,60.57
2022-08-26T02:01:15.734Z,60.84
2022-08-26T02:03:18.900Z,62.10
2022-08-26T02:05:22.118Z,61.41
2022-08-26T02:07:26.625Z,62.21
2022-08-26T02:09:28.539Z,61.87
2022-08-26T02:11:33.503Z,61.62
2022-08-26T02:13:40.002Z,61.61
2022-08-26T02:15:44.441Z,62.05
2022-08-26T02:17:47.390Z,61.73
2022-08-26T02:19:50.400Z,61.87
2022-08-26T02:21:52.885Z,61.46
2022-08-26T02:23:56.197Z,62.35
2022-08-26T02:26:08.712Z,63.57
2022-08-26T02:28:12.305Z,63.69
2022-08-26T02:30:21.165Z,62.47
2022-08-26T02:32:23.386Z,62.24
2022-08-26T02:34:32.785Z,62.25
2022-08-26T02:36:34.639Z,61.68
2022-08-26T02:38:36.436Z,61.81
2022-08-26T02:40:41.376Z,61.72
2022-08-26T02:42:43.232Z,61.17
2022-08-26T02:44:44.744Z,61.62
2022-08-26T02:46:47.220Z,61.68
2022-08-26T02:48:48.881Z,61.38
2022-08-26T02:50:50.389Z,61.40
2022-08-26T02:52:53.121Z,61.54
2022-08-26T02:54:54.649Z,61.99
2022-08-26T02:56:56.726Z,61.63
2022-08-26T02:58:58.845Z,61.45
2022-08-26T03:01:01.566Z,61.80
2022-08-26T03:03:06.741Z,61.84
2022-08-26T03:05:08.816Z,62.43
2022-08-26T03:07:10.290Z,61.67
2022-08-26T03:09:15.974Z,61.53
2022-08-26T03:11:20.408Z,61.17
2022-08-26T03:13:23.271Z,61.53
2022-08-26T03:15:24.895Z,61.36
2022-08-26T03:17:26.950Z,61.51
2022-08-26T03:19:28.994Z,61.47
2022-08-26T03:21:33.211Z,61.38
2022-08-26T03:23:35.260Z,61.49
2022-08-26T03:25:36.773Z,61.55
2022-08-26T03:27:38.365Z,62.23
2022-08-26T03:29:58.946Z,62.04
2022-08-26T03:32:01.550Z,61.78
2022-08-26T03:34:04.192Z,61.71
2022-08-26T03:36:07.747Z,61.77
2022-08-26T03:38:10.066Z,61.42
2022-08-26T03:40:12.164Z,61.41
2022-08-26T03:42:14.941Z,61.45
2022-08-26T03:44:16.882Z,61.31
2022-08-26T03:46:20.611Z,62.61
2022-08-26T03:48:22.599Z,62.28
2022-08-26T03:50:25.281Z,62.08
2022-08-26T03:52:30.110Z,61.69
2022-08-26T03:54:31.727Z,61.53
2022-08-26T03:56:33.669Z,61.55
2022-08-26T03:58:35.483Z,61.88
2022-08-26T04:00:36.964Z,62.35
2022-08-26T04:02:38.703Z,62.02
2022-08-26T04:04:40.248Z,62.22
2022-08-26T04:06:43.324Z,66.08
2022-08-26T04:08:46.349Z,64.38
2022-08-26T04:10:47.833Z,63.87
2022-08-26T04:12:53.326Z,63.05
2022-08-26T04:14:54.866Z,63.33
2022-08-26T04:16:58.773Z,63.15
2022-08-26T04:19:00.605Z,63.06
2022-08-26T04:21:02.618Z,62.74
2022-08-26T04:23:09.568Z,63.22
2022-08-26T04:25:12.782Z,63.10
2022-08-26T04:27:14.355Z,62.90
2022-08-26T04:29:23.941Z,62.79
2022-08-26T04:31:26.299Z,62.66
2022-08-26T04:33:32.517Z,62.39
2022-08-26T04:35:35.198Z,63.26
2022-08-26T04:37:36.695Z,69.03
2022-08-26T04:39:38.196Z,68.55
2022-08-26T04:41:40.200Z,66.48
2022-08-26T04:43:41.976Z,65.92
2022-08-26T04:45:43.986Z,64.91
2022-08-26T04:47:46.786Z,67.94
2022-08-26T04:49:48.359Z,69.73
2022-08-26T04:51:49.904Z,71.36
2022-08-26T04:53:51.387Z,70.43
2022-08-26T04:55:55.287Z,69.94
2022-08-26T04:57:57.273Z,66.48
2022-08-26T04:59:58.766Z,65.48
2022-08-26T05:02:01.645Z,64.61
2022-08-26T05:04:05.015Z,63.97
2022-08-26T05:06:09.703Z,63.56
2022-08-26T05:08:12.938Z,64.03
2022-08-26T05:10:14.679Z,63.73
2022-08-26T05:12:16.425Z,66.94
2022-08-26T05:14:18.366Z,69.81
2022-08-26T05:16:19.988Z,68.71
2022-08-26T05:18:24.211Z,70.09
2022-08-26T05:20:26.316Z,72.63
2022-08-26T05:22:27.850Z,72.02
2022-08-26T05:24:30.202Z,69.86
2022-08-26T05:26:32.341Z,67.09
2022-08-26T05:28:33.883Z,67.06
2022-08-26T05:30:38.101Z,68.83
2022-08-26T05:32:40.120Z,69.64
2022-08-26T05:34:42.924Z,70.50
2022-08-26T05:36:44.609Z,71.06
2022-08-26T05:38:46.451Z,73.27
2022-08-26T05:40:52.602Z,72.86
2022-08-26T05:42:55.077Z,71.64
2022-08-26T05:44:56.656Z,71.44
2022-08-26T05:46:58.148Z,72.29
2022-08-26T05:48:59.738Z,70.01
2022-08-26T05:51:04.965Z,74.09
2022-08-26T05:53:08.938Z,76.36
2022-08-26T05:55:10.481Z,77.19
2022-08-26T05:57:13.829Z,76.47
2022-08-26T05:59:16.083Z,74.54
2022-08-26T06:01:28.035Z,75.50
2022-08-26T06:03:31.653Z,75.58
2022-08-26T06:05:38.421Z,76.83
2022-08-26T06:07:59.290Z,77.77
2022-08-26T06:10:28.170Z,77.16
2022-08-26T06:12:22.367Z,77.93
2022-08-26T06:14:25.916Z,77.90
2022-08-26T06:16:28.400Z,76.87
2022-08-26T06:18:36.230Z,77.52
2022-08-26T06:20:43.494Z,77.52
2022-08-26T06:23:14.581Z,75.45
2022-08-26T06:25:34.516Z,74.41
2022-08-26T06:27:36.751Z,76.97
2022-08-26T06:29:38.856Z,77.46
2022-08-26T06:31:40.356Z,76.96
2022-08-26T06:33:42.901Z,74.56
2022-08-26T06:35:46.810Z,69.87
2022-08-26T06:37:49.967Z,66.44
2022-08-26T06:39:51.547Z,69.08
2022-08-26T06:41:53.076Z,69.45
2022-08-26T06:43:54.670Z,69.51
2022-08-26T06:46:05.231Z,71.72
2022-08-26T06:48:07.639Z,74.29
2022-08-26T06:50:09.294Z,68.75
2022-08-26T06:52:11.258Z,67.19
2022-08-26T06:54:12.815Z,68.87
2022-08-26T06:56:17.313Z,70.48
2022-08-26T06:58:18.841Z,64.88
2022-08-26T07:00:21.369Z,64.05
2022-08-26T07:02:23.497Z,61.86
2022-08-26T07:04:29.949Z,62.12
2022-08-26T07:06:37.537Z,62.18
2022-08-26T07:08:40.914Z,60.66
2022-08-26T07:10:42.925Z,60.17
2022-08-26T07:12:47.258Z,60.59
2022-08-26T07:14:48.937Z,60.31
2022-08-26T07:16:50.962Z,61.51
2022-08-26T07:18:53.627Z,62.07
2022-08-26T07:20:55.118Z,61.66
2022-08-26T07:22:58.917Z,63.50
2022-08-26T07:25:00.489Z,66.48
2022-08-26T07:27:07.465Z,62.88
2022-08-26T07:29:12.496Z,67.44
2022-08-26T07:31:15.875Z,69.34
2022-08-26T07:33:17.986Z,61.40
2022-08-26T07:35:19.563Z,60.00
2022-08-26T07:37:21.063Z,59.42
2022-08-26T07:39:23.548Z,60.94
2022-08-26T07:41:25.775Z,63.93
2022-08-26T07:43:28.393Z,66.29
2022-08-26T07:45:30.866Z,67.21
2022-08-26T07:47:32.633Z,63.78
2022-08-26T07:49:34.481Z,68.62
2022-08-26T07:51:37.155Z,68.79
2022-08-26T07:53:39.852Z,68.89
2022-08-26T07:55:41.572Z,68.85
2022-08-26T07:57:43.191Z,68.83
2022-08-26T07:59:44.853Z,68.90
2022-08-26T08:01:47.579Z,68.86
2022-08-26T08:03:51.559Z,67.30
2022-08-26T08:05:53.347Z,61.94
2022-08-26T08:08:21.865Z,60.07
2022-08-26T08:10:21.037Z,60.52
2022-08-26T08:12:22.826Z,61.32
2022-08-26T08:14:24.316Z,61.14
2022-08-26T08:16:28.265Z,60.98
2022-08-26T08:18:34.134Z,62.84
2022-08-26T08:20:36.502Z,60.62
2022-08-26T08:22:38.140Z,65.04
2022-08-26T08:24:39.626Z,66.56
2022-08-26T08:26:41.796Z,66.71
2022-08-26T08:28:43.462Z,66.62
2022-08-26T08:30:45.665Z,66.79
2022-08-26T08:32:47.607Z,65.78
2022-08-26T08:34:49.675Z,66.25
2022-08-26T08:36:53.526Z,66.07
2022-08-26T08:38:55.850Z,65.56
2022-08-26T08:40:57.326Z,65.15
2022-08-26T08:43:13.516Z,64.91
2022-08-26T08:45:22.210Z,64.55
2022-08-26T08:47:29.529Z,64.32
2022-08-26T08:49:34.213Z,64.34
2022-08-26T08:51:40.404Z,63.94
2022-08-26T08:53:45.579Z,61.61
2022-08-26T08:56:01.955Z,63.38
2022-08-26T08:58:12.076Z,64.05
2022-08-26T09:00:19.680Z,64.03
2022-08-26T09:02:43.038Z,62.97
2022-08-26T09:05:07.878Z,62.82
2022-08-26T09:07:16.613Z,62.30
2022-08-26T09:09:39.586Z,62.04
2022-08-26T09:11:41.114Z,60.32
2022-08-26T09:13:49.978Z,59.36
2022-08-26T09:16:04.443Z,60.39
2022-08-26T09:18:32.110Z,61.36
2022-08-26T09:20:48.940Z,61.82
2022-08-26T09:22:51.677Z,61.06
2022-08-26T09:24:53.262Z,61.25
2022-08-26T09:26:57.686Z,61.67
2022-08-26T09:29:00.370Z,61.50
2022-08-26T09:31:24.244Z,61.39
2022-08-26T09:33:31.403Z,60.93
2022-08-26T09:35:36.594Z,57.54
2022-08-26T09:37:40.571Z,56.89
2022-08-26T09:39:42.670Z,58.96
2022-08-26T09:41:44.165Z,59.39
2022-08-26T09:44:09.170Z,59.60
2022-08-26T09:46:28.780Z,59.19
2022-08-26T09:48:36.870Z,57.53
2022-08-26T09:50:59.869Z,58.65
2022-08-26T09:53:16.596Z,58.70
2022-08-26T09:55:22.700Z,58.14
2022-08-26T09:57:34.241Z,58.17
2022-08-26T09:59:36.083Z,57.80
2022-08-26T10:01:44.712Z,57.92
2022-08-26T10:03:47.102Z,56.46
2022-08-26T10:06:02.584Z,57.00
2022-08-26T10:08:19.896Z,55.45
2022-08-26T10:10:33.477Z,53.79
2022-08-26T10:12:44.445Z,55.42
2022-08-26T10:14:51.991Z,56.07
2022-08-26T10:17:01.142Z,55.55
2022-08-26T10:19:10.583Z,54.89
2022-08-26T10:21:21.162Z,55.29
2022-08-26T10:23:27.766Z,55.90
2022-08-26T10:25:34.397Z,55.68
2022-08-26T10:27:53.924Z,55.43
2022-08-26T10:30:03.842Z,54.53
2022-08-26T10:32:13.821Z,54.18
2022-08-26T10:34:17.824Z,53.13
2022-08-26T10:37:05.051Z,53.03
2022-08-26T10:39:08.063Z,52.73
2022-08-26T10:41:24.144Z,52.12
2022-08-26T10:43:32.768Z,52.31
2022-08-26T10:45:38.691Z,52.26
2022-08-26T10:47:55.665Z,51.97
2022-08-26T10:50:03.339Z,51.65
2022-08-26T10:52:18.319Z,50.17
2022-08-26T10:54:31.539Z,50.49
2022-08-26T10:56:46.842Z,51.20
2022-08-26T10:58:57.840Z,51.65
2022-08-26T11:01:42.156Z,50.99
2022-08-26T11:04:10.358Z,50.45
2022-08-26T11:06:18.368Z,48.93
2022-08-26T11:08:19.838Z,48.47
2022-08-26T11:10:22.842Z,48.68
2022-08-26T11:12:37.471Z,49.69
2022-08-26T11:14:53.214Z,51.00
2022-08-26T11:16:59.783Z,52.33
2022-08-26T11:19:01.624Z,52.28
2022-08-26T11:21:03.618Z,53.09
2022-08-26T11:23:20.617Z,52.58
2022-08-26T11:25:29.933Z,54.20
2022-08-26T11:27:35.338Z,55.71
2022-08-26T11:29:57.498Z,57.38
2022-08-26T11:32:00.072Z,57.33
2022-08-26T11:34:07.166Z,57.13
2022-08-26T11:36:26.066Z,56.34
2022-08-26T11:38:29.496Z,56.07
2022-08-26T11:40:35.361Z,56.00
2022-08-26T11:42:36.971Z,56.39
2022-08-26T11:44:49.180Z,57.48
2022-08-26T11:46:57.471Z,58.16
2022-08-26T11:49:05.282Z,58.28
2022-08-26T11:51:13.590Z,57.97
2022-08-26T11:53:19.233Z,58.14
2022-08-26T11:55:23.470Z,57.92
2022-08-26T11:57:26.705Z,58.14
2022-08-26T11:59:38.726Z,57.87
2022-08-26T12:01:49.032Z,57.93
2022-08-26T12:03:52.237Z,57.90
2022-08-26T12:05:54.444Z,57.98
2022-08-26T12:07:57.224Z,57.39
2022-08-26T12:10:02.266Z,58.44
2022-08-26T12:12:18.488Z,57.19
2022-08-26T12:14:25.167Z,57.53
2022-08-26T12:16:40.420Z,56.75
2022-08-26T12:18:42.011Z,57.93
2022-08-26T12:20:46.506Z,56.78
2022-08-26T12:22:48.421Z,56.76
2022-08-26T12:24:53.812Z,56.27
2022-08-26T12:27:26.897Z,55.99
2022-08-26T12:29:29.767Z,56.12
2022-08-26T12:31:41.005Z,55.81
2022-08-26T12:33:42.985Z,55.65
2022-08-26T12:35:44.908Z,54.39
2022-08-26T12:37:50.804Z,54.35
2022-08-26T12:39:52.809Z,55.21
2022-08-26T12:42:02.624Z,54.66
2022-08-26T12:44:04.119Z,54.72
2022-08-26T12:46:06.961Z,53.01
2022-08-26T12:48:36.249Z,53.56
2022-08-26T12:50:44.471Z,53.94
2022-08-26T12:53:00.081Z,54.56
2022-08-26T12:55:19.916Z,57.24
2022-08-26T12:57:35.090Z,57.15
2022-08-26T12:59:36.670Z,56.40
2022-08-26T13:01:43.543Z,56.70
2022-08-26T13:03:46.346Z,57.34
2022-08-26T13:05:47.949Z,57.13
2022-08-26T13:08:09.267Z,57.06
2022-08-26T13:10:36.301Z,56.54
2022-08-26T13:12:38.144Z,56.45
2022-08-26T13:14:40.465Z,56.84
2022-08-26T13:16:42.663Z,56.78
2022-08-26T13:18:44.171Z,57.27
2022-08-26T13:20:45.746Z,57.90
2022-08-26T13:22:48.753Z,57.68
2022-08-26T13:25:00.133Z,58.64
2022-08-26T13:27:03.195Z,59.85
2022-08-26T13:29:09.578Z,60.34
2022-08-26T13:31:13.641Z,61.54
2022-08-26T13:33:16.732Z,61.65
2022-08-26T13:35:19.766Z,61.35
2022-08-26T13:37:22.256Z,61.91
2022-08-26T13:39:36.747Z,62.19
2022-08-26T13:41:38.436Z,61.65
2022-08-26T13:43:39.948Z,61.48
2022-08-26T13:45:41.424Z,61.14
2022-08-26T13:47:42.916Z,61.92
2022-08-26T13:49:44.480Z,61.20
2022-08-26T13:51:45.990Z,62.45
2022-08-26T13:53:47.649Z,63.02
2022-08-26T13:55:49.199Z,66.10
2022-08-26T13:57:50.690Z,65.21
2022-08-26T13:59:53.935Z,65.45
2022-08-26T14:01:55.474Z,66.28
2022-08-26T14:03:57.371Z,64.85
2022-08-26T14:05:59.360Z,67.36
2022-08-26T14:08:01.025Z,68.89
2022-08-26T14:10:02.882Z,69.17
2022-08-26T14:12:04.469Z,70.31
2022-08-26T14:14:05.980Z,69.83
2022-08-26T14:16:20.666Z,70.44
2022-08-26T14:18:29.289Z,69.50
2022-08-26T14:20:32.233Z,70.40
2022-08-26T14:22:33.904Z,71.04
2022-08-26T14:24:35.389Z,71.30
2022-08-26T14:26:36.895Z,71.80
2022-08-26T14:28:38.540Z,72.13
2022-08-26T14:30:42.091Z,72.38
2022-08-26T14:32:46.816Z,72.38
2022-08-26T14:34:48.848Z,72.53
2022-08-26T14:36:50.321Z,73.56
2022-08-26T14:38:52.208Z,72.46
2022-08-26T14:40:53.700Z,72.91
2022-08-26T14:42:55.296Z,72.98
2022-08-26T14:45:02.777Z,73.91
2022-08-26T14:47:06.626Z,73.75
2022-08-26T14:49:10.704Z,72.67
2022-08-26T14:51:12.431Z,73.73
2022-08-26T14:53:33.701Z,74.18
2022-08-26T14:55:38.677Z,74.52
2022-08-26T14:57:40.159Z,75.04
2022-08-26T14:59:49.624Z,75.54
2022-08-26T15:01:52.650Z,75.61
2022-08-26T15:03:54.210Z,75.45
2022-08-26T15:05:55.706Z,75.91
2022-08-26T15:07:57.226Z,76.55
2022-08-26T15:09:58.735Z,76.72
2022-08-26T15:12:00.988Z,76.99
2022-08-26T15:14:02.775Z,77.00
2022-08-26T15:16:04.468Z,77.76
2022-08-26T15:18:06.073Z,78.20
2022-08-26T15:20:09.280Z,77.88
2022-08-26T15:22:10.762Z,78.06
2022-08-26T15:24:13.056Z,78.32
2022-08-26T15:26:16.476Z,77.75
2022-08-26T15:28:17.972Z,78.46
2022-08-26T15:30:19.477Z,78.55
2022-08-26T15:32:21.079Z,78.79
2022-08-26T15:34:22.703Z,79.11
2022-08-26T15:36:24.247Z,79.47
2022-08-26T15:38:28.001Z,79.07
2022-08-26T15:40:29.676Z,79.36
2022-08-26T15:42:31.430Z,79.66
2022-08-26T15:44:34.093Z,79.36
2022-08-26T15:46:37.549Z,80.03
2022-08-26T15:48:40.760Z,80.19
2022-08-26T15:50:50.705Z,80.07
2022-08-26T15:52:52.189Z,80.06
2022-08-26T15:54:53.746Z,79.68
2022-08-26T15:56:55.259Z,79.39
2022-08-26T15:58:57.526Z,79.96
2022-08-26T16:01:00.269Z,79.69
2022-08-26T16:03:01.762Z,79.14
2022-08-26T16:05:03.665Z,80.02
2022-08-26T16:07:05.309Z,80.08
2022-08-26T16:09:08.000Z,80.15
2022-08-26T16:11:09.490Z,79.89
2022-08-26T16:13:14.762Z,80.61
2022-08-26T16:15:16.941Z,80.95
2022-08-26T16:17:18.489Z,81.10
2022-08-26T16:19:20.050Z,81.11
2022-08-26T16:21:24.634Z,81.14
2022-08-26T16:23:26.254Z,80.93
2022-08-26T16:25:28.880Z,79.02
2022-08-26T16:27:30.585Z,79.42
2022-08-26T16:29:32.540Z,75.52
2022-08-26T16:31:34.663Z,72.89
2022-08-26T16:33:37.831Z,77.36
2022-08-26T16:35:39.819Z,77.59
2022-08-26T16:37:42.097Z,76.97
2022-08-26T16:39:45.136Z,77.09
2022-08-26T16:41:46.885Z,76.17
2022-08-26T16:43:48.641Z,72.95
2022-08-26T16:45:50.139Z,70.58
2022-08-26T16:47:52.446Z,72.46
2022-08-26T16:49:54.010Z,70.49
2022-08-26T16:51:55.571Z,71.06
2022-08-26T16:54:01.453Z,66.96
2022-08-26T16:56:03.142Z,70.57
2022-08-26T16:58:04.684Z,68.55
2022-08-26T17:00:12.539Z,70.20
2022-08-26T17:02:14.009Z,68.23
2022-08-26T17:04:15.679Z,69.20
2022-08-26T17:06:17.399Z,67.19
2022-08-26T17:08:28.390Z,69.00
2022-08-26T17:10:31.645Z,70.01
2022-08-26T17:12:36.100Z,66.47
2022-08-26T17:14:37.569Z,66.05
2022-08-26T17:16:39.612Z,64.90
2022-08-26T17:18:41.499Z,66.66
2022-08-26T17:20:45.055Z,66.57
2022-08-26T17:22:48.583Z,65.12
2022-08-26T17:24:50.066Z,64.15
2022-08-26T17:26:53.542Z,63.89
2022-08-26T17:28:58.099Z,67.33
2022-08-26T17:31:00.106Z,66.99
2022-08-26T17:33:01.665Z,70.47
2022-08-26T17:35:13.773Z,70.04
2022-08-26T17:37:15.264Z,70.39
2022-08-26T17:39:16.911Z,70.86
2022-08-26T17:41:18.945Z,70.96
2022-08-26T17:43:20.645Z,71.66
2022-08-26T17:45:22.733Z,71.52
2022-08-26T17:47:24.335Z,72.36
2022-08-26T17:49:25.916Z,72.18
2022-08-26T17:51:27.722Z,70.06
2022-08-26T17:53:29.420Z,70.78
2022-08-26T17:55:30.987Z,69.18
2022-08-26T17:57:32.662Z,70.89
2022-08-26T17:59:42.343Z,70.74
2022-08-26T18:01:44.286Z,71.65
2022-08-26T18:03:45.976Z,72.41
2022-08-26T18:05:49.786Z,72.70
2022-08-26T18:07:51.634Z,73.70
2022-08-26T18:09:53.194Z,74.24
2022-08-26T18:11:54.691Z,73.73
2022-08-26T18:13:56.187Z,73.18
2022-08-26T18:15:57.753Z,73.38
2022-08-26T18:17:59.872Z,74.03
2022-08-26T18:20:01.959Z,72.64
2022-08-26T18:22:03.564Z,71.94
2022-08-26T18:24:05.594Z,73.48
2022-08-26T18:26:07.131Z,73.90
2022-08-26T18:28:13.011Z,75.03
2022-08-26T18:30:20.709Z,75.44
2022-08-26T18:32:22.210Z,75.07
2022-08-26T18:34:23.797Z,75.18
2022-08-26T18:36:36.597Z,75.93
2022-08-26T18:38:38.125Z,75.69
2022-08-26T18:40:45.747Z,75.07
2022-08-26T18:42:47.221Z,75.97
2022-08-26T18:44:55.561Z,76.73
2022-08-26T18:46:57.237Z,76.98
2022-08-26T18:48:58.935Z,77.51
2022-08-26T18:51:00.599Z,77.60
2022-08-26T18:53:02.541Z,76.55
2022-08-26T18:55:04.435Z,77.84
2022-08-26T18:57:05.942Z,77.81
2022-08-26T18:59:09.311Z,77.57
2022-08-26T19:01:12.438Z,76.97
2022-08-26T19:03:18.392Z,78.06
2022-08-26T19:05:21.014Z,76.22
2022-08-26T19:07:22.873Z,77.72
2022-08-26T19:09:26.314Z,77.51
2022-08-26T19:11:31.585Z,77.82
2022-08-26T19:13:35.479Z,75.83
2022-08-26T19:15:39.381Z,76.38
2022-08-26T19:17:41.354Z,78.11
2022-08-26T19:19:42.919Z,77.91
2022-08-26T19:21:47.241Z,78.59
2022-08-26T19:23:49.434Z,79.39
2022-08-26T19:25:53.214Z,80.20
2022-08-26T19:27:55.988Z,80.44
2022-08-26T19:29:58.386Z,80.94
2022-08-26T19:31:59.997Z,81.10
2022-08-26T19:35:02.849Z,81.50
2022-08-26T19:42:53.496Z,82.42
2022-08-26T19:45:24.388Z,82.72
2022-08-26T19:47:55.777Z,82.78
2022-08-26T19:49:57.441Z,82.44
2022-08-26T19:51:59.320Z,82.33
2022-08-26T19:54:01.661Z,81.87
2022-08-26T19:56:03.357Z,81.49
2022-08-26T19:58:05.233Z,81.05
2022-08-26T20:00:14.667Z,80.63
2022-08-26T20:02:16.573Z,80.88
2022-08-26T20:04:18.196Z,79.08
2022-08-26T20:06:20.327Z,80.16
2022-08-26T20:08:22.827Z,79.90
2022-08-26T20:10:24.728Z,81.26
2022-08-26T20:12:27.494Z,79.76
2022-08-26T20:14:29.954Z,81.14
2022-08-26T20:16:32.752Z,81.81
2022-08-26T20:18:52.595Z,81.83
2022-08-26T20:21:12.492Z,82.00
2022-08-26T20:23:14.023Z,82.06
2022-08-26T20:25:16.077Z,81.88
2022-08-26T20:27:17.977Z,81.73
2022-08-26T20:29:19.676Z,81.68
2022-08-26T20:31:21.686Z,81.40
2022-08-26T20:33:23.219Z,81.80
2022-08-26T20:35:24.797Z,81.84
2022-08-26T20:37:26.579Z,81.18
2022-08-26T20:39:31.020Z,79.73
2022-08-26T20:41:32.898Z,78.26
2022-08-26T20:43:34.405Z,77.88
2022-08-26T20:45:36.015Z,79.91
2022-08-26T20:47:37.648Z,80.18
2022-08-26T20:49:39.117Z,80.75
2022-08-26T20:51:45.484Z,80.82
2022-08-26T20:53:47.552Z,80.50
2022-08-26T20:55:51.381Z,81.22
2022-08-26T20:57:52.988Z,81.27
2022-08-26T20:59:54.501Z,81.74
2022-08-26T21:01:56.189Z,81.95
2022-08-26T21:03:57.715Z,81.69
2022-08-26T21:05:59.544Z,80.53
2022-08-26T21:08:01.017Z,81.64
2022-08-26T21:10:03.135Z,81.76
2022-08-26T21:12:05.122Z,81.59
2022-08-26T21:14:15.903Z,81.66
2022-08-26T21:16:19.650Z,81.88
2022-08-26T21:18:21.180Z,79.97
2022-08-26T21:20:23.819Z,81.32
2022-08-26T21:22:25.406Z,81.83
2022-08-26T21:24:27.013Z,81.99
2022-08-26T21:26:28.875Z,82.32
2022-08-26T21:28:30.960Z,82.54
2022-08-26T21:30:34.189Z,82.69
2022-08-26T21:32:35.886Z,82.38
2022-08-26T21:34:37.353Z,78.96
2022-08-26T21:36:38.919Z,81.38
2022-08-26T21:38:41.295Z,82.28
2022-08-26T21:40:42.825Z,81.82
2022-08-26T21:42:44.340Z,81.80
2022-08-26T21:44:46.501Z,82.10
2022-08-26T21:46:55.678Z,82.35
2022-08-26T21:49:00.334Z,81.90
2022-08-26T21:51:04.355Z,81.97
2022-08-26T21:53:06.239Z,82.32
2022-08-26T21:55:11.576Z,82.37
2022-08-26T21:57:13.658Z,81.56
2022-08-26T21:59:17.741Z,81.78
2022-08-26T22:01:21.710Z,81.98
2022-08-26T22:03:23.222Z,81.90
2022-08-26T22:05:24.716Z,81.90
2022-08-26T22:07:26.201Z,79.54
2022-08-26T22:09:30.962Z,80.40
2022-08-26T22:11:32.481Z,80.79
2022-08-26T22:13:36.905Z,81.39
2022-08-26T22:15:40.479Z,81.70
2022-08-26T22:17:41.966Z,81.32
2022-08-26T22:19:46.215Z,81.19
2022-08-26T22:21:51.950Z,80.92
2022-08-26T22:23:57.887Z,79.28
2022-08-26T22:26:00.267Z,80.11
2022-08-26T22:28:01.972Z,79.88
2022-08-26T22:30:03.949Z,79.67
2022-08-26T22:32:05.722Z,79.50
2022-08-26T22:34:10.508Z,79.56
2022-08-26T22:36:27.108Z,75.25
2022-08-26T22:38:28.606Z,76.21
2022-08-26T22:40:30.237Z,76.86
2022-08-26T22:42:31.950Z,77.58
2022-08-26T22:44:36.359Z,77.39
2022-08-26T22:46:38.589Z,77.83
2022-08-26T22:48:40.075Z,78.02
2022-08-26T22:50:42.756Z,77.52
2022-08-26T22:52:44.291Z,77.83
2022-08-26T22:54:45.861Z,77.82
2022-08-26T22:56:47.406Z,78.02
2022-08-26T22:58:49.170Z,77.90
2022-08-26T23:00:50.749Z,77.01
2022-08-26T23:02:56.769Z,75.74
2022-08-26T23:04:58.279Z,74.40
2022-08-26T23:06:59.786Z,76.74
2022-08-26T23:09:01.274Z,77.35
2022-08-26T23:11:02.860Z,77.90
2022-08-26T23:13:07.634Z,78.00
2022-08-26T23:15:11.525Z,77.85
2022-08-26T23:17:14.259Z,77.86
2022-08-26T23:19:18.241Z,77.30
2022-08-26T23:21:19.787Z,77.60
2022-08-26T23:23:21.733Z,77.71
2022-08-26T23:25:23.276Z,76.86
2022-08-26T23:27:26.905Z,76.86
2022-08-26T23:29:29.109Z,77.82
2022-08-26T23:31:31.298Z,77.80
2022-08-26T23:33:51.452Z,77.55
2022-08-26T23:35:52.924Z,78.09
2022-08-26T23:37:55.869Z,78.12
2022-08-26T23:40:10.312Z,78.53
2022-08-26T23:42:12.699Z,78.54
2022-08-26T23:44:14.227Z,78.33
2022-08-26T23:46:16.034Z,78.63
2022-08-26T23:48:17.692Z,78.92
2022-08-26T23:50:45.670Z,79.26
2022-08-26T23:53:06.216Z,79.34
2022-08-26T23:55:08.306Z,79.62
2022-08-26T23:57:10.158Z,79.77
2022-08-26T23:59:12.028Z,79.79
